sensor_id;sensor_type;location;lat;lon;timestamp;temperature;humidity
26503;DHT22;14177;51.520;6.764;2024-02-04T00:02:19;10.40;99.90
26503;DHT22;14177;51.520;6.764;2024-02-04T00:04:51;10.30;99.90
26503;DHT22;14177;51.520;6.764;2024-02-04T00:07:19;10.30;99.90
26503;DHT22;14177;51.520;6.764;2024-02-04T00:09:46;10.30;99.90
26503;DHT22;14177;51.520;6.764;2024-02-04T00:12:13;10.30;99.90
26503;DHT22;14177;51.520;6.764;2024-02-04T00:14:40;10.30;99.90
26503;DHT22;14177;51.520;6.764;2024-02-04T00:17:07;10.30;99.90
26503;DHT22;14177;51.520;6.764;2024-02-04T00:19:34;10.30;99.90
26503;DHT22;14177;51.520;6.764;2024-02-04T00:22:01;10.30;99.90
26503;DHT22;14177;51.520;6.764;2024-02-04T00:24:28;10.30;99.90
26503;DHT22;14177;51.520;6.764;2024-02-04T00:26:55;10.30;99.90
26503;DHT22;14177;51.520;6.764;2024-02-04T00:29:22;10.30;99.90
26503;DHT22;14177;51.520;6.764;2024-02-04T00:31:49;10.30;99.90
26503;DHT22;14177;51.520;6.764;2024-02-04T00:34:16;10.30;99.90
26503;DHT22;14177;51.520;6.764;2024-02-04T00:36:43;10.30;99.90
26503;DHT22;14177;51.520;6.764;2024-02-04T00:39:10;10.30;99.90
26503;DHT22;14177;51.520;6.764;2024-02-04T00:41:38;10.30;99.90
26503;DHT22;14177;51.520;6.764;2024-02-04T00:44:05;10.30;99.90
26503;DHT22;14177;51.520;6.764;2024-02-04T00:46:32;10.30;99.90
26503;DHT22;14177;51.520;6.764;2024-02-04T00:48:59;10.30;99.90
26503;DHT22;14177;51.520;6.764;2024-02-04T00:51:26;10.30;99.90
26503;DHT22;14177;51.520;6.764;2024-02-04T00:53:53;10.30;99.90
26503;DHT22;14177;51.520;6.764;2024-02-04T00:56:22;10.30;99.90
26503;DHT22;14177;51.520;6.764;2024-02-04T00:58:49;10.30;99.90
26503;DHT22;14177;51.520;6.764;2024-02-04T01:01:16;10.30;99.90
26503;DHT22;14177;51.520;6.764;2024-02-04T01:03:43;10.30;99.90
26503;DHT22;14177;51.520;6.764;2024-02-04T01:06:10;10.30;99.90
26503;DHT22;14177;51.520;6.764;2024-02-04T01:08:37;10.30;99.90
26503;DHT22;14177;51.520;6.764;2024-02-04T01:11:05;10.20;99.90
26503;DHT22;14177;51.520;6.764;2024-02-04T01:13:32;10.20;99.90
26503;DHT22;14177;51.520;6.764;2024-02-04T01:15:59;10.20;99.90
26503;DHT22;14177;51.520;6.764;2024-02-04T01:18:26;10.20;99.90
26503;DHT22;14177;51.520;6.764;2024-02-04T01:20:53;10.20;99.90
26503;DHT22;14177;51.520;6.764;2024-02-04T01:23:20;10.20;99.90
26503;DHT22;14177;51.520;6.764;2024-02-04T01:25:47;10.20;99.90
26503;DHT22;14177;51.520;6.764;2024-02-04T01:28:14;10.10;99.90
26503;DHT22;14177;51.520;6.764;2024-02-04T01:30:41;10.20;99.90
26503;DHT22;14177;51.520;6.764;2024-02-04T01:33:08;10.10;99.90
26503;DHT22;14177;51.520;6.764;2024-02-04T01:35:35;10.10;99.90
26503;DHT22;14177;51.520;6.764;2024-02-04T01:38:02;10.20;99.90
26503;DHT22;14177;51.520;6.764;2024-02-04T01:40:30;10.10;99.90
26503;DHT22;14177;51.520;6.764;2024-02-04T01:42:57;10.20;99.90
26503;DHT22;14177;51.520;6.764;2024-02-04T01:45:24;10.20;99.90
26503;DHT22;14177;51.520;6.764;2024-02-04T01:47:51;10.20;99.90
26503;DHT22;14177;51.520;6.764;2024-02-04T01:50:20;10.20;99.90
26503;DHT22;14177;51.520;6.764;2024-02-04T01:52:49;10.20;99.90
26503;DHT22;14177;51.520;6.764;2024-02-04T01:55:18;10.20;99.90
26503;DHT22;14177;51.520;6.764;2024-02-04T01:57:47;10.20;99.90
26503;DHT22;14177;51.520;6.764;2024-02-04T02:00:16;10.20;99.90
26503;DHT22;14177;51.520;6.764;2024-02-04T02:02:46;10.20;99.90
26503;DHT22;14177;51.520;6.764;2024-02-04T02:05:15;10.30;99.90
26503;DHT22;14177;51.520;6.764;2024-02-04T02:07:42;10.20;99.90
26503;DHT22;14177;51.520;6.764;2024-02-04T02:10:12;10.20;99.90
26503;DHT22;14177;51.520;6.764;2024-02-04T02:12:47;10.30;99.90
26503;DHT22;14177;51.520;6.764;2024-02-04T02:15:22;10.30;99.90
26503;DHT22;14177;51.520;6.764;2024-02-04T02:17:59;10.30;99.90
26503;DHT22;14177;51.520;6.764;2024-02-04T02:23:22;10.30;99.90
26503;DHT22;14177;51.520;6.764;2024-02-04T02:25:50;10.30;99.90
26503;DHT22;14177;51.520;6.764;2024-02-04T02:28:18;10.30;99.90
26503;DHT22;14177;51.520;6.764;2024-02-04T02:30:45;10.30;99.90
26503;DHT22;14177;51.520;6.764;2024-02-04T02:33:12;10.30;99.90
26503;DHT22;14177;51.520;6.764;2024-02-04T02:35:40;10.40;99.90
26503;DHT22;14177;51.520;6.764;2024-02-04T02:38:25;10.40;99.90
26503;DHT22;14177;51.520;6.764;2024-02-04T02:40:59;10.30;99.90
26503;DHT22;14177;51.520;6.764;2024-02-04T02:43:32;10.30;99.90
26503;DHT22;14177;51.520;6.764;2024-02-04T02:46:01;10.30;99.90
26503;DHT22;14177;51.520;6.764;2024-02-04T02:48:29;10.30;99.90
26503;DHT22;14177;51.520;6.764;2024-02-04T02:50:56;10.30;99.90
26503;DHT22;14177;51.520;6.764;2024-02-04T02:53:24;10.30;99.90
26503;DHT22;14177;51.520;6.764;2024-02-04T02:55:51;10.30;99.90
26503;DHT22;14177;51.520;6.764;2024-02-04T02:58:18;10.30;99.90
26503;DHT22;14177;51.520;6.764;2024-02-04T03:00:46;10.30;99.90
26503;DHT22;14177;51.520;6.764;2024-02-04T03:03:13;10.30;99.90
26503;DHT22;14177;51.520;6.764;2024-02-04T03:05:41;10.30;99.90
26503;DHT22;14177;51.520;6.764;2024-02-04T03:08:08;10.30;99.90
26503;DHT22;14177;51.520;6.764;2024-02-04T03:10:35;10.30;99.90
26503;DHT22;14177;51.520;6.764;2024-02-04T03:13:02;10.30;99.90
26503;DHT22;14177;51.520;6.764;2024-02-04T03:15:29;10.30;99.90
26503;DHT22;14177;51.520;6.764;2024-02-04T03:17:57;10.30;99.90
26503;DHT22;14177;51.520;6.764;2024-02-04T03:20:24;10.30;99.90
26503;DHT22;14177;51.520;6.764;2024-02-04T03:22:51;10.30;99.90
26503;DHT22;14177;51.520;6.764;2024-02-04T03:25:18;10.30;99.90
26503;DHT22;14177;51.520;6.764;2024-02-04T03:27:45;10.30;99.90
26503;DHT22;14177;51.520;6.764;2024-02-04T03:30:13;10.30;99.90
26503;DHT22;14177;51.520;6.764;2024-02-04T03:32:40;10.40;99.90
26503;DHT22;14177;51.520;6.764;2024-02-04T03:35:08;10.30;99.90
26503;DHT22;14177;51.520;6.764;2024-02-04T03:37:35;10.30;99.90
26503;DHT22;14177;51.520;6.764;2024-02-04T03:40:02;10.30;99.90
26503;DHT22;14177;51.520;6.764;2024-02-04T03:42:29;10.30;99.90
26503;DHT22;14177;51.520;6.764;2024-02-04T03:44:57;10.30;99.90
26503;DHT22;14177;51.520;6.764;2024-02-04T03:47:24;10.30;99.90
26503;DHT22;14177;51.520;6.764;2024-02-04T03:49:51;10.30;99.90
26503;DHT22;14177;51.520;6.764;2024-02-04T03:52:18;10.40;99.90
26503;DHT22;14177;51.520;6.764;2024-02-04T03:54:45;10.30;99.90
26503;DHT22;14177;51.520;6.764;2024-02-04T03:57:12;10.40;99.90
26503;DHT22;14177;51.520;6.764;2024-02-04T03:59:39;10.30;99.90
26503;DHT22;14177;51.520;6.764;2024-02-04T04:02:06;10.30;99.90
26503;DHT22;14177;51.520;6.764;2024-02-04T04:04:33;10.40;99.90
26503;DHT22;14177;51.520;6.764;2024-02-04T04:07:00;10.40;99.90
26503;DHT22;14177;51.520;6.764;2024-02-04T04:09:27;10.40;99.90
26503;DHT22;14177;51.520;6.764;2024-02-04T04:11:55;10.40;99.90
26503;DHT22;14177;51.520;6.764;2024-02-04T04:14:22;10.40;99.90
26503;DHT22;14177;51.520;6.764;2024-02-04T04:16:49;10.40;99.90
26503;DHT22;14177;51.520;6.764;2024-02-04T04:19:16;10.40;99.90
26503;DHT22;14177;51.520;6.764;2024-02-04T04:21:43;10.40;99.90
26503;DHT22;14177;51.520;6.764;2024-02-04T04:24:10;10.40;99.90
26503;DHT22;14177;51.520;6.764;2024-02-04T04:26:37;10.50;99.90
26503;DHT22;14177;51.520;6.764;2024-02-04T04:29:03;10.50;99.90
26503;DHT22;14177;51.520;6.764;2024-02-04T04:31:30;10.50;99.90
26503;DHT22;14177;51.520;6.764;2024-02-04T04:33:57;10.50;99.90
26503;DHT22;14177;51.520;6.764;2024-02-04T04:36:24;10.50;99.90
26503;DHT22;14177;51.520;6.764;2024-02-04T04:38:51;10.50;99.90
26503;DHT22;14177;51.520;6.764;2024-02-04T04:41:18;10.50;99.90
26503;DHT22;14177;51.520;6.764;2024-02-04T04:43:45;10.50;99.90
26503;DHT22;14177;51.520;6.764;2024-02-04T04:46:12;10.50;99.90
26503;DHT22;14177;51.520;6.764;2024-02-04T04:48:39;10.50;99.90
26503;DHT22;14177;51.520;6.764;2024-02-04T04:51:11;10.50;99.90
26503;DHT22;14177;51.520;6.764;2024-02-04T04:53:38;10.50;99.90
26503;DHT22;14177;51.520;6.764;2024-02-04T04:56:06;10.50;99.90
26503;DHT22;14177;51.520;6.764;2024-02-04T04:58:35;10.50;99.90
26503;DHT22;14177;51.520;6.764;2024-02-04T05:01:02;10.50;99.90
26503;DHT22;14177;51.520;6.764;2024-02-04T05:03:29;10.50;99.90
26503;DHT22;14177;51.520;6.764;2024-02-04T05:05:56;10.50;99.90
26503;DHT22;14177;51.520;6.764;2024-02-04T05:08:23;10.60;99.90
26503;DHT22;14177;51.520;6.764;2024-02-04T05:10:50;10.50;99.90
26503;DHT22;14177;51.520;6.764;2024-02-04T05:13:16;10.50;99.90
26503;DHT22;14177;51.520;6.764;2024-02-04T05:15:43;10.50;99.90
26503;DHT22;14177;51.520;6.764;2024-02-04T05:18:10;10.60;99.90
26503;DHT22;14177;51.520;6.764;2024-02-04T05:20:37;10.50;99.90
26503;DHT22;14177;51.520;6.764;2024-02-04T05:23:04;10.50;99.90
26503;DHT22;14177;51.520;6.764;2024-02-04T05:25:31;10.50;99.90
26503;DHT22;14177;51.520;6.764;2024-02-04T05:27:58;10.50;99.90
26503;DHT22;14177;51.520;6.764;2024-02-04T05:30:25;10.50;99.90
26503;DHT22;14177;51.520;6.764;2024-02-04T05:32:52;10.50;99.90
26503;DHT22;14177;51.520;6.764;2024-02-04T05:35:19;10.50;99.90
26503;DHT22;14177;51.520;6.764;2024-02-04T05:37:46;10.50;99.90
26503;DHT22;14177;51.520;6.764;2024-02-04T05:40:13;10.50;99.90
26503;DHT22;14177;51.520;6.764;2024-02-04T05:42:42;10.50;99.90
26503;DHT22;14177;51.520;6.764;2024-02-04T05:45:09;10.50;99.90
26503;DHT22;14177;51.520;6.764;2024-02-04T05:47:37;10.50;99.90
26503;DHT22;14177;51.520;6.764;2024-02-04T05:50:04;10.50;99.90
26503;DHT22;14177;51.520;6.764;2024-02-04T05:52:32;10.50;99.90
26503;DHT22;14177;51.520;6.764;2024-02-04T05:54:59;10.50;99.90
26503;DHT22;14177;51.520;6.764;2024-02-04T05:57:31;10.50;99.90
26503;DHT22;14177;51.520;6.764;2024-02-04T05:59:58;10.50;99.90
26503;DHT22;14177;51.520;6.764;2024-02-04T06:02:26;10.50;99.90
26503;DHT22;14177;51.520;6.764;2024-02-04T06:04:53;10.50;99.90
26503;DHT22;14177;51.520;6.764;2024-02-04T06:07:21;10.50;99.90
26503;DHT22;14177;51.520;6.764;2024-02-04T06:09:48;10.50;99.90
26503;DHT22;14177;51.520;6.764;2024-02-04T06:12:15;10.50;99.90
26503;DHT22;14177;51.520;6.764;2024-02-04T06:14:42;10.50;99.90
26503;DHT22;14177;51.520;6.764;2024-02-04T06:17:09;10.50;99.90
26503;DHT22;14177;51.520;6.764;2024-02-04T06:19:37;10.50;99.90
26503;DHT22;14177;51.520;6.764;2024-02-04T06:22:04;10.50;99.90
26503;DHT22;14177;51.520;6.764;2024-02-04T06:24:32;10.50;99.90
26503;DHT22;14177;51.520;6.764;2024-02-04T06:26:59;10.50;99.90
26503;DHT22;14177;51.520;6.764;2024-02-04T06:29:26;10.50;99.90
26503;DHT22;14177;51.520;6.764;2024-02-04T06:31:53;10.50;99.90
26503;DHT22;14177;51.520;6.764;2024-02-04T06:34:19;10.40;99.90
26503;DHT22;14177;51.520;6.764;2024-02-04T06:36:46;10.40;99.90
26503;DHT22;14177;51.520;6.764;2024-02-04T06:39:14;10.40;99.90
26503;DHT22;14177;51.520;6.764;2024-02-04T06:41:41;10.40;99.90
26503;DHT22;14177;51.520;6.764;2024-02-04T06:44:08;10.40;99.90
26503;DHT22;14177;51.520;6.764;2024-02-04T06:46:34;10.40;99.90
26503;DHT22;14177;51.520;6.764;2024-02-04T06:49:01;10.40;99.90
26503;DHT22;14177;51.520;6.764;2024-02-04T06:51:29;10.40;99.90
26503;DHT22;14177;51.520;6.764;2024-02-04T06:53:56;10.40;99.90
26503;DHT22;14177;51.520;6.764;2024-02-04T06:56:23;10.40;99.90
26503;DHT22;14177;51.520;6.764;2024-02-04T06:58:49;10.40;99.90
26503;DHT22;14177;51.520;6.764;2024-02-04T07:01:16;10.40;99.90
26503;DHT22;14177;51.520;6.764;2024-02-04T07:03:44;10.40;99.90
26503;DHT22;14177;51.520;6.764;2024-02-04T07:06:11;10.40;99.90
26503;DHT22;14177;51.520;6.764;2024-02-04T07:08:38;10.40;99.90
26503;DHT22;14177;51.520;6.764;2024-02-04T07:11:05;10.40;99.90
26503;DHT22;14177;51.520;6.764;2024-02-04T07:13:32;10.40;99.90
26503;DHT22;14177;51.520;6.764;2024-02-04T07:15:59;10.30;99.90
26503;DHT22;14177;51.520;6.764;2024-02-04T07:18:26;10.40;99.90
26503;DHT22;14177;51.520;6.764;2024-02-04T07:20:53;10.40;99.90
26503;DHT22;14177;51.520;6.764;2024-02-04T07:23:20;10.40;99.90
26503;DHT22;14177;51.520;6.764;2024-02-04T07:25:48;10.40;99.90
26503;DHT22;14177;51.520;6.764;2024-02-04T07:28:15;10.40;99.90
26503;DHT22;14177;51.520;6.764;2024-02-04T07:30:42;10.40;99.90
26503;DHT22;14177;51.520;6.764;2024-02-04T07:33:10;10.40;99.90
26503;DHT22;14177;51.520;6.764;2024-02-04T07:35:36;10.40;99.90
26503;DHT22;14177;51.520;6.764;2024-02-04T07:38:03;10.40;99.90
26503;DHT22;14177;51.520;6.764;2024-02-04T07:40:30;10.50;99.90
26503;DHT22;14177;51.520;6.764;2024-02-04T07:42:58;10.40;99.90
26503;DHT22;14177;51.520;6.764;2024-02-04T07:45:24;10.50;99.90
26503;DHT22;14177;51.520;6.764;2024-02-04T07:47:52;10.50;99.90
26503;DHT22;14177;51.520;6.764;2024-02-04T07:50:19;10.50;99.90
26503;DHT22;14177;51.520;6.764;2024-02-04T07:52:46;10.50;99.90
26503;DHT22;14177;51.520;6.764;2024-02-04T07:55:13;10.50;99.90
26503;DHT22;14177;51.520;6.764;2024-02-04T07:57:40;10.60;99.90
26503;DHT22;14177;51.520;6.764;2024-02-04T08:00:07;10.50;99.90
26503;DHT22;14177;51.520;6.764;2024-02-04T08:02:39;10.50;99.90
26503;DHT22;14177;51.520;6.764;2024-02-04T08:05:07;10.50;99.90
26503;DHT22;14177;51.520;6.764;2024-02-04T08:07:34;10.50;99.90
26503;DHT22;14177;51.520;6.764;2024-02-04T08:10:01;10.50;99.90
26503;DHT22;14177;51.520;6.764;2024-02-04T08:12:28;10.40;99.90
26503;DHT22;14177;51.520;6.764;2024-02-04T08:14:55;10.50;99.90
26503;DHT22;14177;51.520;6.764;2024-02-04T08:17:22;10.40;99.90
26503;DHT22;14177;51.520;6.764;2024-02-04T08:19:49;10.50;99.90
26503;DHT22;14177;51.520;6.764;2024-02-04T08:22:17;10.50;99.90
26503;DHT22;14177;51.520;6.764;2024-02-04T08:24:45;10.50;99.90
26503;DHT22;14177;51.520;6.764;2024-02-04T08:27:13;10.50;99.90
26503;DHT22;14177;51.520;6.764;2024-02-04T08:29:44;10.50;99.90
26503;DHT22;14177;51.520;6.764;2024-02-04T08:32:11;10.50;99.90
26503;DHT22;14177;51.520;6.764;2024-02-04T08:34:39;10.50;99.90
26503;DHT22;14177;51.520;6.764;2024-02-04T08:37:06;10.50;99.90
26503;DHT22;14177;51.520;6.764;2024-02-04T08:39:33;10.50;99.90
26503;DHT22;14177;51.520;6.764;2024-02-04T08:42:01;10.50;99.90
26503;DHT22;14177;51.520;6.764;2024-02-04T08:44:27;10.50;99.90
26503;DHT22;14177;51.520;6.764;2024-02-04T08:47:05;10.50;99.90
26503;DHT22;14177;51.520;6.764;2024-02-04T08:49:32;10.50;99.90
26503;DHT22;14177;51.520;6.764;2024-02-04T08:51:59;10.50;99.90
26503;DHT22;14177;51.520;6.764;2024-02-04T08:54:26;10.50;99.90
26503;DHT22;14177;51.520;6.764;2024-02-04T08:56:53;10.50;99.90
26503;DHT22;14177;51.520;6.764;2024-02-04T08:59:20;10.50;99.90
26503;DHT22;14177;51.520;6.764;2024-02-04T09:01:47;10.50;99.90
26503;DHT22;14177;51.520;6.764;2024-02-04T09:04:14;10.50;99.90
26503;DHT22;14177;51.520;6.764;2024-02-04T09:06:42;10.50;99.90
26503;DHT22;14177;51.520;6.764;2024-02-04T09:09:09;10.50;99.90
26503;DHT22;14177;51.520;6.764;2024-02-04T09:11:36;10.50;99.90
26503;DHT22;14177;51.520;6.764;2024-02-04T09:14:03;10.50;99.90
26503;DHT22;14177;51.520;6.764;2024-02-04T09:16:30;10.50;99.90
26503;DHT22;14177;51.520;6.764;2024-02-04T09:18:58;10.60;99.90
26503;DHT22;14177;51.520;6.764;2024-02-04T09:21:25;10.50;99.90
26503;DHT22;14177;51.520;6.764;2024-02-04T09:23:52;10.50;99.90
26503;DHT22;14177;51.520;6.764;2024-02-04T09:26:20;10.50;99.90
26503;DHT22;14177;51.520;6.764;2024-02-04T09:28:47;10.50;99.90
26503;DHT22;14177;51.520;6.764;2024-02-04T09:31:14;10.50;99.90
26503;DHT22;14177;51.520;6.764;2024-02-04T09:33:41;10.50;99.90
26503;DHT22;14177;51.520;6.764;2024-02-04T09:36:09;10.50;99.90
26503;DHT22;14177;51.520;6.764;2024-02-04T09:38:36;10.60;99.90
26503;DHT22;14177;51.520;6.764;2024-02-04T09:41:03;10.60;99.90
26503;DHT22;14177;51.520;6.764;2024-02-04T09:43:32;10.60;99.90
26503;DHT22;14177;51.520;6.764;2024-02-04T09:46:01;10.60;99.90
26503;DHT22;14177;51.520;6.764;2024-02-04T09:48:33;10.70;99.90
26503;DHT22;14177;51.520;6.764;2024-02-04T09:51:01;10.70;99.90
26503;DHT22;14177;51.520;6.764;2024-02-04T09:53:32;10.70;99.90
26503;DHT22;14177;51.520;6.764;2024-02-04T09:56:05;10.70;99.90
26503;DHT22;14177;51.520;6.764;2024-02-04T09:58:41;10.70;99.90
26503;DHT22;14177;51.520;6.764;2024-02-04T10:06:13;10.70;99.90
26503;DHT22;14177;51.520;6.764;2024-02-04T10:18:53;10.70;99.90
26503;DHT22;14177;51.520;6.764;2024-02-04T10:27:00;10.80;99.90
26503;DHT22;14177;51.520;6.764;2024-02-04T10:29:47;10.80;99.90
26503;DHT22;14177;51.520;6.764;2024-02-04T10:33:38;10.90;99.90
26503;DHT22;14177;51.520;6.764;2024-02-04T10:36:36;10.90;99.90
26503;DHT22;14177;51.520;6.764;2024-02-04T10:39:52;11.00;99.90
26503;DHT22;14177;51.520;6.764;2024-02-04T10:43:07;11.10;99.90
26503;DHT22;14177;51.520;6.764;2024-02-04T10:45:38;11.10;99.90
26503;DHT22;14177;51.520;6.764;2024-02-04T10:48:06;11.20;99.90
26503;DHT22;14177;51.520;6.764;2024-02-04T10:50:37;11.20;99.90
26503;DHT22;14177;51.520;6.764;2024-02-04T10:53:06;11.20;99.90
26503;DHT22;14177;51.520;6.764;2024-02-04T10:55:40;11.30;99.90
26503;DHT22;14177;51.520;6.764;2024-02-04T10:58:11;11.30;99.90
26503;DHT22;14177;51.520;6.764;2024-02-04T11:00:43;11.30;99.90
26503;DHT22;14177;51.520;6.764;2024-02-04T11:03:11;11.20;99.90
26503;DHT22;14177;51.520;6.764;2024-02-04T11:05:41;11.20;99.90
26503;DHT22;14177;51.520;6.764;2024-02-04T11:08:10;11.10;99.90
26503;DHT22;14177;51.520;6.764;2024-02-04T11:10:39;11.10;99.90
26503;DHT22;14177;51.520;6.764;2024-02-04T11:13:07;11.10;99.90
26503;DHT22;14177;51.520;6.764;2024-02-04T11:15:37;11.10;99.90
26503;DHT22;14177;51.520;6.764;2024-02-04T11:18:46;11.00;99.90
26503;DHT22;14177;51.520;6.764;2024-02-04T11:21:28;11.10;99.90
26503;DHT22;14177;51.520;6.764;2024-02-04T11:27:09;11.20;99.90
26503;DHT22;14177;51.520;6.764;2024-02-04T11:29:37;11.20;99.90
26503;DHT22;14177;51.520;6.764;2024-02-04T11:32:06;11.20;99.90
26503;DHT22;14177;51.520;6.764;2024-02-04T11:34:34;11.20;99.90
26503;DHT22;14177;51.520;6.764;2024-02-04T11:37:01;11.20;99.90
26503;DHT22;14177;51.520;6.764;2024-02-04T11:39:29;11.10;99.90
26503;DHT22;14177;51.520;6.764;2024-02-04T11:41:56;11.10;99.90
26503;DHT22;14177;51.520;6.764;2024-02-04T11:44:26;11.10;99.90
26503;DHT22;14177;51.520;6.764;2024-02-04T11:46:54;11.00;99.90
26503;DHT22;14177;51.520;6.764;2024-02-04T11:49:25;11.00;99.90
26503;DHT22;14177;51.520;6.764;2024-02-04T11:51:53;11.00;99.90
26503;DHT22;14177;51.520;6.764;2024-02-04T11:54:20;11.00;99.90
26503;DHT22;14177;51.520;6.764;2024-02-04T11:56:49;11.00;99.90
26503;DHT22;14177;51.520;6.764;2024-02-04T11:59:20;11.00;99.90
26503;DHT22;14177;51.520;6.764;2024-02-04T12:01:54;11.00;99.90
26503;DHT22;14177;51.520;6.764;2024-02-04T12:04:22;11.00;99.90
26503;DHT22;14177;51.520;6.764;2024-02-04T12:06:50;11.00;99.90
26503;DHT22;14177;51.520;6.764;2024-02-04T12:09:19;11.00;99.90
26503;DHT22;14177;51.520;6.764;2024-02-04T12:11:47;11.00;99.90
26503;DHT22;14177;51.520;6.764;2024-02-04T12:14:14;11.00;99.90
26503;DHT22;14177;51.520;6.764;2024-02-04T12:16:44;11.10;99.90
26503;DHT22;14177;51.520;6.764;2024-02-04T12:19:12;11.10;99.90
26503;DHT22;14177;51.520;6.764;2024-02-04T12:21:39;11.00;99.90
26503;DHT22;14177;51.520;6.764;2024-02-04T12:24:07;11.10;99.90
26503;DHT22;14177;51.520;6.764;2024-02-04T12:26:35;11.00;99.90
26503;DHT22;14177;51.520;6.764;2024-02-04T12:29:02;11.10;99.90
26503;DHT22;14177;51.520;6.764;2024-02-04T12:31:29;11.10;99.90
26503;DHT22;14177;51.520;6.764;2024-02-04T12:33:59;11.00;99.90
26503;DHT22;14177;51.520;6.764;2024-02-04T12:36:31;11.00;99.90
26503;DHT22;14177;51.520;6.764;2024-02-04T12:39:00;11.10;99.90
26503;DHT22;14177;51.520;6.764;2024-02-04T12:41:28;11.10;99.90
26503;DHT22;14177;51.520;6.764;2024-02-04T12:43:59;11.10;99.90
26503;DHT22;14177;51.520;6.764;2024-02-04T12:46:27;11.10;99.90
26503;DHT22;14177;51.520;6.764;2024-02-04T12:48:55;11.10;99.90
26503;DHT22;14177;51.520;6.764;2024-02-04T12:51:31;11.10;99.90
26503;DHT22;14177;51.520;6.764;2024-02-04T12:54:04;11.00;99.90
26503;DHT22;14177;51.520;6.764;2024-02-04T12:56:45;11.10;99.90
26503;DHT22;14177;51.520;6.764;2024-02-04T12:59:30;11.10;99.90
26503;DHT22;14177;51.520;6.764;2024-02-04T13:02:02;11.00;99.90
26503;DHT22;14177;51.520;6.764;2024-02-04T13:04:37;11.10;99.90
26503;DHT22;14177;51.520;6.764;2024-02-04T13:07:11;11.00;99.90
26503;DHT22;14177;51.520;6.764;2024-02-04T13:09:45;11.00;99.90
26503;DHT22;14177;51.520;6.764;2024-02-04T13:12:14;11.10;99.90
26503;DHT22;14177;51.520;6.764;2024-02-04T13:14:43;11.00;99.90
26503;DHT22;14177;51.520;6.764;2024-02-04T13:17:11;11.00;99.90
26503;DHT22;14177;51.520;6.764;2024-02-04T13:19:38;11.00;99.90
26503;DHT22;14177;51.520;6.764;2024-02-04T13:22:06;11.00;99.90
26503;DHT22;14177;51.520;6.764;2024-02-04T13:24:37;11.00;99.90
26503;DHT22;14177;51.520;6.764;2024-02-04T13:27:04;11.00;99.90
26503;DHT22;14177;51.520;6.764;2024-02-04T13:29:34;11.00;99.90
26503;DHT22;14177;51.520;6.764;2024-02-04T13:32:01;11.00;99.90
26503;DHT22;14177;51.520;6.764;2024-02-04T13:34:29;11.00;99.90
26503;DHT22;14177;51.520;6.764;2024-02-04T13:36:56;10.90;99.90
26503;DHT22;14177;51.520;6.764;2024-02-04T13:39:23;10.90;99.90
26503;DHT22;14177;51.520;6.764;2024-02-04T13:41:49;11.00;99.90
26503;DHT22;14177;51.520;6.764;2024-02-04T13:44:16;11.00;99.90
26503;DHT22;14177;51.520;6.764;2024-02-04T13:46:44;10.90;99.90
26503;DHT22;14177;51.520;6.764;2024-02-04T13:49:10;10.90;99.90
26503;DHT22;14177;51.520;6.764;2024-02-04T13:51:39;10.90;99.90
26503;DHT22;14177;51.520;6.764;2024-02-04T13:54:11;10.90;99.90
26503;DHT22;14177;51.520;6.764;2024-02-04T13:56:44;10.90;99.90
26503;DHT22;14177;51.520;6.764;2024-02-04T13:59:13;10.90;99.90
26503;DHT22;14177;51.520;6.764;2024-02-04T14:01:40;10.90;99.90
26503;DHT22;14177;51.520;6.764;2024-02-04T14:04:07;10.90;99.90
26503;DHT22;14177;51.520;6.764;2024-02-04T14:06:35;10.90;99.90
26503;DHT22;14177;51.520;6.764;2024-02-04T14:09:03;10.90;99.90
26503;DHT22;14177;51.520;6.764;2024-02-04T14:11:32;10.90;99.90
26503;DHT22;14177;51.520;6.764;2024-02-04T14:13:59;10.90;99.90
26503;DHT22;14177;51.520;6.764;2024-02-04T14:16:26;10.90;99.90
26503;DHT22;14177;51.520;6.764;2024-02-04T14:18:53;10.90;99.90
26503;DHT22;14177;51.520;6.764;2024-02-04T14:21:24;10.90;99.90
26503;DHT22;14177;51.520;6.764;2024-02-04T14:23:51;10.90;99.90
26503;DHT22;14177;51.520;6.764;2024-02-04T14:26:18;10.90;99.90
26503;DHT22;14177;51.520;6.764;2024-02-04T14:28:47;10.80;99.90
26503;DHT22;14177;51.520;6.764;2024-02-04T14:31:15;10.90;99.90
26503;DHT22;14177;51.520;6.764;2024-02-04T14:33:42;10.80;99.90
26503;DHT22;14177;51.520;6.764;2024-02-04T14:36:10;10.80;99.90
26503;DHT22;14177;51.520;6.764;2024-02-04T14:38:37;10.80;99.90
26503;DHT22;14177;51.520;6.764;2024-02-04T14:41:06;10.80;99.90
26503;DHT22;14177;51.520;6.764;2024-02-04T14:43:33;10.90;99.90
26503;DHT22;14177;51.520;6.764;2024-02-04T14:46:01;10.90;99.90
26503;DHT22;14177;51.520;6.764;2024-02-04T14:48:29;10.90;99.90
26503;DHT22;14177;51.520;6.764;2024-02-04T14:50:56;10.90;99.90
26503;DHT22;14177;51.520;6.764;2024-02-04T14:53:25;10.90;99.90
26503;DHT22;14177;51.520;6.764;2024-02-04T14:55:52;10.90;99.90
26503;DHT22;14177;51.520;6.764;2024-02-04T14:58:19;10.90;99.90
26503;DHT22;14177;51.520;6.764;2024-02-04T15:00:47;10.90;99.90
26503;DHT22;14177;51.520;6.764;2024-02-04T15:03:15;10.90;99.90
26503;DHT22;14177;51.520;6.764;2024-02-04T15:05:42;11.00;99.90
26503;DHT22;14177;51.520;6.764;2024-02-04T15:08:09;11.00;99.90
26503;DHT22;14177;51.520;6.764;2024-02-04T15:10:36;11.00;99.90
26503;DHT22;14177;51.520;6.764;2024-02-04T15:13:05;11.00;99.90
26503;DHT22;14177;51.520;6.764;2024-02-04T15:15:32;11.00;99.90
26503;DHT22;14177;51.520;6.764;2024-02-04T15:18:00;11.00;99.90
26503;DHT22;14177;51.520;6.764;2024-02-04T15:20:28;11.00;99.90
26503;DHT22;14177;51.520;6.764;2024-02-04T15:22:58;11.00;99.90
26503;DHT22;14177;51.520;6.764;2024-02-04T15:25:28;11.00;99.90
26503;DHT22;14177;51.520;6.764;2024-02-04T15:27:56;11.00;99.90
26503;DHT22;14177;51.520;6.764;2024-02-04T15:30:23;11.00;99.90
26503;DHT22;14177;51.520;6.764;2024-02-04T15:32:51;11.00;99.90
26503;DHT22;14177;51.520;6.764;2024-02-04T15:35:20;11.00;99.90
26503;DHT22;14177;51.520;6.764;2024-02-04T15:37:47;11.00;99.90
26503;DHT22;14177;51.520;6.764;2024-02-04T15:40:14;11.00;99.90
26503;DHT22;14177;51.520;6.764;2024-02-04T15:42:41;11.00;99.90
26503;DHT22;14177;51.520;6.764;2024-02-04T15:45:09;11.00;99.90
26503;DHT22;14177;51.520;6.764;2024-02-04T15:47:42;11.00;99.90
26503;DHT22;14177;51.520;6.764;2024-02-04T15:50:18;11.00;99.90
26503;DHT22;14177;51.520;6.764;2024-02-04T15:52:51;11.00;99.90
26503;DHT22;14177;51.520;6.764;2024-02-04T15:55:19;11.00;99.90
26503;DHT22;14177;51.520;6.764;2024-02-04T15:57:49;11.00;99.90
26503;DHT22;14177;51.520;6.764;2024-02-04T16:00:18;11.00;99.90
26503;DHT22;14177;51.520;6.764;2024-02-04T16:02:53;11.00;99.90
26503;DHT22;14177;51.520;6.764;2024-02-04T16:05:21;11.00;99.90
26503;DHT22;14177;51.520;6.764;2024-02-04T16:07:50;11.00;99.90